Time;durP1;ratioP1;P1;durP2;ratioP2;P2;SDS_P1;SDS_P2;PMS_P1;PMS_P2;Temp;Humidity;BMP_temperature;BMP_pressure;BME280_temperature;BME280_humidity;BME280_pressure;Samples;Min_cycle;Max_cycle;Signal;HPM_P1;HPM_P2
2020/12/24 00:02:20;;;;;;;9.93;2.60;;;;;;;;;;12951439;22;20194;-59
2020/12/24 00:07:22;;;;;;;9.93;2.37;;;;;;;;;;12947760;22;20186;-59
2020/12/24 00:12:23;;;;;;;10.73;2.03;;;;;;;;;;12949965;22;20209;-59
2020/12/24 00:17:26;;;;;;;10.53;2.07;;;;;;;;;;12949532;22;20210;-59
2020/12/24 00:22:28;;;;;;;8.67;2.37;;;;;;;;;;12949958;22;20181;-59
2020/12/24 00:27:29;;;;;;;16.13;2.53;;;;;;;;;;12950212;22;20174;-59
2020/12/24 00:32:32;;;;;;;11.60;2.47;;;;;;;;;;12950398;22;20626;-59
2020/12/24 00:37:34;;;;;;;7.20;2.20;;;;;;;;;;12946558;22;20787;-59
2020/12/24 00:42:35;;;;;;;10.63;2.60;;;;;;;;;;12950295;22;20185;-58
2020/12/24 00:47:38;;;;;;;5.73;2.20;;;;;;;;;;12947496;22;20186;-59
2020/12/24 00:52:40;;;;;;;9.63;2.27;;;;;;;;;;12948051;22;20175;-57
2020/12/24 00:57:41;;;;;;;9.30;2.50;;;;;;;;;;12946541;22;20354;-59
2020/12/24 01:02:44;;;;;;;9.67;2.23;;;;;;;;;;12950239;22;20191;-58
2020/12/24 01:07:46;;;;;;;10.60;2.73;;;;;;;;;;12945102;22;20487;-58
2020/12/24 01:12:48;;;;;;;7.67;2.00;;;;;;;;;;12945644;22;20217;-58
2020/12/24 01:17:51;;;;;;;6.73;1.77;;;;;;;;;;12946196;22;20206;-59
2020/12/24 01:22:53;;;;;;;9.50;1.93;;;;;;;;;;12944483;22;20182;-58
2020/12/24 01:27:54;;;;;;;5.37;1.73;;;;;;;;;;12946423;22;20210;-59
2020/12/24 01:32:57;;;;;;;8.50;1.80;;;;;;;;;;12946002;22;20174;-57
2020/12/24 01:37:59;;;;;;;8.37;2.13;;;;;;;;;;12946054;22;20259;-58
2020/12/24 01:43:12;;;;;;;6.50;1.90;;;;;;;;;;12944169;22;20370;-58
2020/12/24 01:48:14;;;;;;;8.00;1.97;;;;;;;;;;12948549;22;20174;-59
2020/12/24 01:53:25;;;;;;;13.47;2.07;;;;;;;;;;12943275;22;20182;-58
2020/12/24 01:58:27;;;;;;;13.27;2.60;;;;;;;;;;12947390;22;20206;-59
2020/12/24 02:03:29;;;;;;;13.83;2.00;;;;;;;;;;12944720;22;20204;-59
2020/12/24 02:08:32;;;;;;;10.80;1.80;;;;;;;;;;12947752;22;20179;-59
2020/12/24 02:13:34;;;;;;;11.90;2.03;;;;;;;;;;12946478;22;20206;-59
2020/12/24 02:18:37;;;;;;;9.70;1.93;;;;;;;;;;12950648;22;20213;-59
2020/12/24 02:23:39;;;;;;;6.10;1.83;;;;;;;;;;12948389;22;20182;-59
2020/12/24 02:28:41;;;;;;;10.67;1.70;;;;;;;;;;12952806;22;20174;-59
2020/12/24 02:33:43;;;;;;;9.70;1.90;;;;;;;;;;12950464;22;20175;-59
2020/12/24 02:38:45;;;;;;;6.83;1.60;;;;;;;;;;12951738;22;20198;-59
2020/12/24 02:43:50;;;;;;;8.37;1.50;;;;;;;;;;12949959;22;20182;-59
2020/12/24 02:48:51;;;;;;;7.40;1.60;;;;;;;;;;12952699;22;20589;-59
2020/12/24 02:53:54;;;;;;;7.27;1.70;;;;;;;;;;12947559;22;20555;-59
2020/12/24 02:58:55;;;;;;;10.03;1.80;;;;;;;;;;12952375;22;20206;-59
2020/12/24 03:03:57;;;;;;;9.20;1.90;;;;;;;;;;12950345;22;20205;-59
2020/12/24 03:09:00;;;;;;;9.23;1.83;;;;;;;;;;12951622;22;20170;-58
2020/12/24 03:14:02;;;;;;;9.07;1.97;;;;;;;;;;12954334;22;20680;-59
2020/12/24 03:19:03;;;;;;;6.87;1.47;;;;;;;;;;12952147;22;20206;-59
2020/12/24 03:24:06;;;;;;;7.83;1.83;;;;;;;;;;12949574;22;20720;-59
2020/12/24 03:29:08;;;;;;;9.07;3.87;;;;;;;;;;12948758;22;20198;-59
2020/12/24 03:34:10;;;;;;;8.77;4.90;;;;;;;;;;12952490;22;20185;-59
2020/12/24 03:39:13;;;;;;;5.23;3.70;;;;;;;;;;12947055;22;20585;-59
2020/12/24 03:44:14;;;;;;;7.80;3.97;;;;;;;;;;12949254;22;20640;-59
2020/12/24 03:49:16;;;;;;;5.03;3.13;;;;;;;;;;12948710;22;20194;-59
2020/12/24 03:54:19;;;;;;;2.50;2.07;;;;;;;;;;12948040;22;20652;-58
2020/12/24 03:59:22;;;;;;;5.23;2.30;;;;;;;;;;12948039;22;21066;-59
2020/12/24 04:04:24;;;;;;;3.20;1.87;;;;;;;;;;12950396;22;20196;-59
2020/12/24 04:09:28;;;;;;;2.17;1.67;;;;;;;;;;12946894;22;20727;-58
2020/12/24 04:14:31;;;;;;;2.40;2.00;;;;;;;;;;12949715;22;20214;-58
2020/12/24 04:19:33;;;;;;;7.40;2.00;;;;;;;;;;12949414;22;21056;-57
2020/12/24 04:24:37;;;;;;;2.63;1.60;;;;;;;;;;12949981;22;20652;-59
2020/12/24 04:29:40;;;;;;;3.10;1.60;;;;;;;;;;12948248;22;20174;-59
2020/12/24 04:34:43;;;;;;;2.00;1.27;;;;;;;;;;12950235;22;20375;-58
2020/12/24 04:39:46;;;;;;;3.07;1.07;;;;;;;;;;12946358;22;20752;-59
2020/12/24 04:44:48;;;;;;;3.90;0.90;;;;;;;;;;12950525;22;20184;-58
2020/12/24 04:49:50;;;;;;;1.00;1.00;;;;;;;;;;12949132;22;20175;-58
2020/12/24 04:54:55;;;;;;;2.23;1.00;;;;;;;;;;12949339;22;20185;-59
2020/12/24 04:59:58;;;;;;;1.33;1.07;;;;;;;;;;12969690;22;20181;-59
2020/12/24 05:04:59;;;;;;;0.60;0.60;;;;;;;;;;12949488;22;20198;-59
2020/12/24 05:10:02;;;;;;;0.97;0.70;;;;;;;;;;12947697;22;20210;-59
2020/12/24 05:15:04;;;;;;;1.03;0.87;;;;;;;;;;12970131;22;20686;-59
2020/12/24 05:20:07;;;;;;;1.87;0.90;;;;;;;;;;12947626;22;20196;-59
2020/12/24 05:25:11;;;;;;;5.10;0.90;;;;;;;;;;12950627;22;20411;-59
2020/12/24 05:30:24;;;;;;;2.10;0.80;;;;;;;;;;12946045;22;20179;-57
2020/12/24 05:35:26;;;;;;;2.33;0.87;;;;;;;;;;12970799;22;20198;-59
2020/12/24 05:40:30;;;;;;;1.23;0.77;;;;;;;;;;12947602;22;20175;-59
2020/12/24 05:45:32;;;;;;;1.17;0.80;;;;;;;;;;12952748;22;20723;-59
2020/12/24 05:50:34;;;;;;;1.63;0.90;;;;;;;;;;12953697;22;20179;-59
2020/12/24 05:55:37;;;;;;;1.23;0.70;;;;;;;;;;12949760;22;20213;-59
2020/12/24 06:00:40;;;;;;;0.80;0.80;;;;;;;;;;12954024;22;20602;-59
2020/12/24 06:05:53;;;;;;;0.93;0.80;;;;;;;;;;12953429;22;20206;-59
2020/12/24 06:11:03;;;;;;;2.23;0.80;;;;;;;;;;12956880;22;20206;-59
2020/12/24 06:16:06;;;;;;;1.40;0.80;;;;;;;;;;12973536;22;20249;-59
2020/12/24 06:21:12;;;;;;;2.07;0.80;;;;;;;;;;12953525;22;20568;-59
2020/12/24 06:26:19;;;;;;;1.80;0.90;;;;;;;;;;12973609;22;20190;-60
2020/12/24 06:31:22;;;;;;;0.70;0.70;;;;;;;;;;12970670;22;20617;-59
2020/12/24 06:36:31;;;;;;;0.77;0.77;;;;;;;;;;12951098;22;20668;-59
2020/12/24 06:41:36;;;;;;;1.53;0.80;;;;;;;;;;12950535;22;20179;-59
2020/12/24 06:46:57;;;;;;;0.87;0.80;;;;;;;;;;12973958;22;20201;-59
2020/12/24 06:51:58;;;;;;;3.00;1.03;;;;;;;;;;12948575;22;20179;-59
2020/12/24 06:57:23;;;;;;;2.60;0.90;;;;;;;;;;12951141;22;20170;-59
2020/12/24 07:02:25;;;;;;;3.60;1.40;;;;;;;;;;12967525;22;20190;-59
2020/12/24 07:07:41;;;;;;;3.27;1.30;;;;;;;;;;12949604;22;20677;-58
2020/12/24 07:12:53;;;;;;;4.50;1.70;;;;;;;;;;12958154;22;20208;-59
2020/12/24 07:17:55;;;;;;;3.53;1.70;;;;;;;;;;12973453;22;20305;-59
2020/12/24 07:22:57;;;;;;;2.63;1.30;;;;;;;;;;12947659;22;20216;-59
2020/12/24 07:27:59;;;;;;;3.90;1.40;;;;;;;;;;12949667;22;20539;-58
2020/12/24 07:33:01;;;;;;;1.73;1.10;;;;;;;;;;12948214;22;20575;-59
2020/12/24 07:38:02;;;;;;;2.47;1.53;;;;;;;;;;12949107;22;20756;-59
2020/12/24 07:43:08;;;;;;;3.00;1.50;;;;;;;;;;12947543;22;20171;-59
2020/12/24 07:48:15;;;;;;;5.23;1.53;;;;;;;;;;12949828;22;20220;-59
2020/12/24 07:53:17;;;;;;;3.33;1.80;;;;;;;;;;12967985;22;20163;-63
2020/12/24 07:58:19;;;;;;;3.63;1.90;;;;;;;;;;12949556;22;20179;-59
2020/12/24 08:03:21;;;;;;;3.63;2.00;;;;;;;;;;12946975;22;20673;-59
2020/12/24 08:08:23;;;;;;;5.43;2.30;;;;;;;;;;12948386;22;20715;-59
2020/12/24 08:13:26;;;;;;;4.00;2.30;;;;;;;;;;12947213;22;20202;-59
2020/12/24 08:18:32;;;;;;;3.37;2.30;;;;;;;;;;12935842;22;20201;-60
2020/12/24 08:23:44;;;;;;;6.63;2.20;;;;;;;;;;12965812;22;20224;-59
2020/12/24 08:28:51;;;;;;;6.53;2.47;;;;;;;;;;12962744;22;20198;-59
2020/12/24 08:33:54;;;;;;;5.10;2.33;;;;;;;;;;12944968;22;20178;-60
2020/12/24 11:33:39;;;;;;;11.87;1.73;;;;;;;;;;12705156;22;20676;-58
2020/12/24 11:38:41;;;;;;;7.60;1.70;;;;;;;;;;12694195;23;20184;-58
2020/12/24 11:43:43;;;;;;;12.83;2.10;;;;;;;;;;12691807;23;20635;-57
2020/12/24 11:48:47;;;;;;;9.63;1.80;;;;;;;;;;12694686;23;20420;-59
2020/12/24 11:53:49;;;;;;;10.50;2.20;;;;;;;;;;12691947;23;20191;-56
2020/12/24 11:58:51;;;;;;;15.10;2.20;;;;;;;;;;12696800;23;20177;-56
2020/12/24 12:03:53;;;;;;;14.30;1.70;;;;;;;;;;12691017;23;20184;-58
2020/12/24 12:08:55;;;;;;;12.00;2.10;;;;;;;;;;12693494;23;20208;-59
2020/12/24 12:13:57;;;;;;;15.97;1.97;;;;;;;;;;12692128;23;20183;-59
2020/12/24 12:18:59;;;;;;;16.27;1.80;;;;;;;;;;12693050;23;20617;-59
2020/12/24 12:24:01;;;;;;;12.43;1.67;;;;;;;;;;12693010;23;20208;-62
2020/12/24 12:29:03;;;;;;;11.60;2.33;;;;;;;;;;12690947;23;20563;-58
2020/12/24 12:34:06;;;;;;;6.83;1.63;;;;;;;;;;12689235;23;21013;-59
2020/12/24 12:39:08;;;;;;;14.30;1.67;;;;;;;;;;12694267;23;20184;-58
2020/12/24 12:44:09;;;;;;;11.57;1.67;;;;;;;;;;12691994;23;20183;-61
2020/12/24 12:49:12;;;;;;;11.83;1.80;;;;;;;;;;12693490;23;20220;-61
2020/12/24 12:54:14;;;;;;;10.97;2.03;;;;;;;;;;12691261;23;20184;-62
2020/12/24 12:59:15;;;;;;;9.23;1.93;;;;;;;;;;12694912;23;20181;-61
2020/12/24 13:04:18;;;;;;;11.07;2.27;;;;;;;;;;12689449;23;20207;-60
2020/12/24 13:09:19;;;;;;;10.70;1.83;;;;;;;;;;12692039;23;20212;-61
2020/12/24 13:14:22;;;;;;;16.27;2.40;;;;;;;;;;12692027;23;20180;-62
2020/12/24 13:19:24;;;;;;;11.57;2.10;;;;;;;;;;12693714;23;20184;-60
2020/12/24 13:24:26;;;;;;;14.43;2.27;;;;;;;;;;12690714;23;20192;-57
2020/12/24 13:29:27;;;;;;;8.17;1.87;;;;;;;;;;12692725;23;20216;-56
2020/12/24 13:34:30;;;;;;;11.83;1.80;;;;;;;;;;12689979;23;20267;-59
2020/12/24 13:39:31;;;;;;;11.23;1.97;;;;;;;;;;12694304;23;20791;-56
2020/12/24 13:44:33;;;;;;;13.47;1.70;;;;;;;;;;12689646;23;20188;-58
2020/12/24 13:49:35;;;;;;;8.43;1.97;;;;;;;;;;12692603;23;20546;-59
2020/12/24 13:54:37;;;;;;;9.20;1.70;;;;;;;;;;12689000;23;20196;-58
2020/12/24 13:59:42;;;;;;;6.90;1.77;;;;;;;;;;12692830;23;20259;-57
2020/12/24 14:04:45;;;;;;;8.63;2.50;;;;;;;;;;12692567;23;20205;-53
2020/12/24 14:09:47;;;;;;;10.53;1.93;;;;;;;;;;12694463;23;20209;-59
2020/12/24 14:14:49;;;;;;;7.90;2.30;;;;;;;;;;12698903;23;20221;-57
2020/12/24 14:19:52;;;;;;;8.20;1.90;;;;;;;;;;12693902;23;20402;-58
2020/12/24 14:24:53;;;;;;;9.53;1.90;;;;;;;;;;12695275;23;20185;-56
2020/12/24 14:30:03;;;;;;;8.47;1.87;;;;;;;;;;12691975;23;20745;-56
2020/12/24 14:35:05;;;;;;;12.35;2.45;;;;;;;;;;12693327;23;20440;-59
2020/12/24 14:40:07;;;;;;;8.13;2.07;;;;;;;;;;12692564;23;20177;-58
2020/12/24 14:45:13;;;;;;;12.00;2.17;;;;;;;;;;12696002;23;20176;-58
2020/12/24 14:50:16;;;;;;;12.87;2.60;;;;;;;;;;12694410;23;20255;-56
2020/12/24 14:55:18;;;;;;;13.63;2.77;;;;;;;;;;12690535;23;20431;-56
2020/12/24 15:00:22;;;;;;;12.40;2.00;;;;;;;;;;12692691;23;20848;-57
2020/12/24 15:05:25;;;;;;;8.87;2.23;;;;;;;;;;12693308;23;20177;-55
2020/12/24 15:10:27;;;;;;;7.13;2.20;;;;;;;;;;12692350;23;20215;-55
2020/12/24 15:15:29;;;;;;;11.43;2.30;;;;;;;;;;12694113;23;20546;-57
2020/12/24 15:20:32;;;;;;;9.90;2.37;;;;;;;;;;12692906;23;20177;-57
2020/12/24 15:25:33;;;;;;;9.43;2.00;;;;;;;;;;12695189;23;20188;-57
2020/12/24 15:30:40;;;;;;;11.30;2.37;;;;;;;;;;12687658;23;20658;-57
2020/12/24 15:35:43;;;;;;;14.43;3.00;;;;;;;;;;12691718;23;20216;-57
2020/12/24 15:40:45;;;;;;;7.43;1.90;;;;;;;;;;12691097;23;20526;-56
2020/12/24 15:45:47;;;;;;;11.20;2.30;;;;;;;;;;12716365;23;20229;-54
2020/12/24 15:50:49;;;;;;;8.67;2.17;;;;;;;;;;12690748;23;20215;-55
2020/12/24 15:55:51;;;;;;;21.20;2.27;;;;;;;;;;12693569;23;20189;-56
2020/12/24 16:01:00;;;;;;;10.27;2.20;;;;;;;;;;12692635;23;20177;-55
2020/12/24 16:06:02;;;;;;;13.90;2.60;;;;;;;;;;12693996;23;20181;-54
2020/12/24 16:11:04;;;;;;;18.53;3.77;;;;;;;;;;12691683;23;20548;-56
2020/12/24 16:16:06;;;;;;;16.13;2.87;;;;;;;;;;12695082;23;20177;-56
2020/12/24 16:21:09;;;;;;;15.87;3.37;;;;;;;;;;12691588;23;20187;-54
2020/12/24 16:26:10;;;;;;;23.97;3.13;;;;;;;;;;12694545;23;20184;-60
2020/12/24 16:31:19;;;;;;;14.20;2.87;;;;;;;;;;12689558;23;20654;-61
2020/12/24 16:36:23;;;;;;;22.77;3.27;;;;;;;;;;12693026;23;20631;-60
2020/12/24 16:41:25;;;;;;;23.23;3.20;;;;;;;;;;12690164;23;20430;-60
2020/12/24 16:46:26;;;;;;;17.77;3.27;;;;;;;;;;12694122;23;20213;-54
2020/12/24 16:51:29;;;;;;;20.80;3.80;;;;;;;;;;12690701;23;20578;-57
2020/12/24 16:56:30;;;;;;;21.07;3.77;;;;;;;;;;12692844;23;20188;-55
2020/12/24 17:01:37;;;;;;;18.83;3.63;;;;;;;;;;12692683;23;20181;-55
2020/12/24 17:06:39;;;;;;;18.80;3.47;;;;;;;;;;12710994;23;20209;-58
2020/12/24 17:11:41;;;;;;;18.13;3.50;;;;;;;;;;12695668;23;20212;-55
2020/12/24 17:16:43;;;;;;;22.13;3.17;;;;;;;;;;12689739;23;20646;-53
2020/12/24 17:21:45;;;;;;;20.03;3.10;;;;;;;;;;12693293;23;20173;-56
2020/12/24 17:26:47;;;;;;;21.77;3.20;;;;;;;;;;12689808;23;20213;-56
2020/12/24 17:31:54;;;;;;;15.80;3.60;;;;;;;;;;12692281;23;20213;-57
2020/12/24 17:36:56;;;;;;;22.65;4.07;;;;;;;;;;12689380;23;20448;-58
2020/12/24 17:41:58;;;;;;;19.50;3.10;;;;;;;;;;12696950;23;20204;-57
2020/12/24 17:47:00;;;;;;;19.83;2.97;;;;;;;;;;12694299;23;20215;-57
2020/12/24 17:52:02;;;;;;;19.13;3.67;;;;;;;;;;12693799;23;20192;-58
2020/12/24 17:57:04;;;;;;;28.57;3.47;;;;;;;;;;12694151;23;20177;-58
2020/12/24 18:02:12;;;;;;;16.63;2.83;;;;;;;;;;12695404;23;20265;-56
2020/12/24 18:07:15;;;;;;;12.53;2.30;;;;;;;;;;12693137;23;20670;-56
2020/12/24 18:12:17;;;;;;;11.87;2.20;;;;;;;;;;12696520;23;20192;-55
2020/12/24 18:17:18;;;;;;;12.63;2.67;;;;;;;;;;12691298;23;20647;-62
2020/12/24 18:22:21;;;;;;;14.33;2.57;;;;;;;;;;12691231;23;20181;-60
2020/12/24 18:27:22;;;;;;;13.47;2.73;;;;;;;;;;12695092;23;20255;-61
2020/12/24 18:32:35;;;;;;;12.13;2.40;;;;;;;;;;12691354;23;20212;-61
2020/12/24 18:37:38;;;;;;;21.33;3.67;;;;;;;;;;12692694;23;20429;-61
2020/12/24 18:42:42;;;;;;;22.37;3.60;;;;;;;;;;12701517;23;20532;-61
2020/12/24 18:47:44;;;;;;;28.57;4.37;;;;;;;;;;12700845;23;20914;-61
2020/12/24 18:52:46;;;;;;;19.53;2.80;;;;;;;;;;12699360;23;20177;-61
2020/12/24 18:57:48;;;;;;;23.50;5.17;;;;;;;;;;12701114;23;20177;-61
2020/12/24 19:02:52;;;;;;;20.67;3.80;;;;;;;;;;12700139;23;20184;-61
2020/12/24 19:07:55;;;;;;;16.40;3.47;;;;;;;;;;12698681;23;20209;-61
2020/12/24 19:12:56;;;;;;;10.87;3.30;;;;;;;;;;12699293;23;20181;-61
2020/12/24 19:17:58;;;;;;;14.73;4.00;;;;;;;;;;12701711;23;20503;-62
2020/12/24 19:23:00;;;;;;;17.57;3.50;;;;;;;;;;12697085;23;20718;-62
2020/12/24 19:28:02;;;;;;;12.47;3.37;;;;;;;;;;12695633;23;20204;-58
2020/12/24 19:33:11;;;;;;;16.10;3.63;;;;;;;;;;12690454;23;20652;-57
2020/12/24 19:38:14;;;;;;;14.67;3.60;;;;;;;;;;12690138;23;20187;-59
2020/12/24 19:43:16;;;;;;;18.37;4.77;;;;;;;;;;12692658;23;20628;-59
2020/12/24 19:48:17;;;;;;;12.63;3.23;;;;;;;;;;12694728;23;20551;-62
2020/12/24 19:53:20;;;;;;;14.23;3.57;;;;;;;;;;12689297;23;20524;-62
2020/12/24 19:58:21;;;;;;;11.07;3.40;;;;;;;;;;12698317;23;20181;-63
2020/12/24 20:03:29;;;;;;;12.90;3.20;;;;;;;;;;12694593;23;20169;-63
2020/12/24 20:08:31;;;;;;;13.17;2.37;;;;;;;;;;12691819;23;20697;-64
2020/12/24 20:13:33;;;;;;;8.17;2.13;;;;;;;;;;12695441;23;20518;-64
2020/12/24 20:18:36;;;;;;;9.27;2.13;;;;;;;;;;12688885;23;20177;-65
2020/12/24 20:23:38;;;;;;;9.63;2.00;;;;;;;;;;12692804;23;20180;-65
2020/12/24 20:28:41;;;;;;;10.87;1.67;;;;;;;;;;12692774;23;20215;-64
2020/12/24 20:33:49;;;;;;;3.73;1.53;;;;;;;;;;12692737;23;20209;-63
2020/12/24 20:38:52;;;;;;;7.83;2.00;;;;;;;;;;12690226;23;20201;-66
2020/12/24 20:43:54;;;;;;;7.87;2.20;;;;;;;;;;12693181;23;20593;-65
2020/12/24 20:48:55;;;;;;;10.27;2.60;;;;;;;;;;12692665;23;21000;-63
2020/12/24 20:53:58;;;;;;;8.77;2.37;;;;;;;;;;12689357;23;20780;-64
2020/12/24 20:59:00;;;;;;;9.60;2.00;;;;;;;;;;12693381;23;20185;-64
2020/12/24 21:04:11;;;;;;;7.33;2.10;;;;;;;;;;12690771;23;20173;-63
2020/12/24 21:09:14;;;;;;;11.63;2.00;;;;;;;;;;12692802;23;20223;-62
2020/12/24 21:14:16;;;;;;;9.83;1.90;;;;;;;;;;12697178;23;20958;-63
2020/12/24 21:19:18;;;;;;;9.53;1.93;;;;;;;;;;12695247;23;20177;-64
2020/12/24 21:24:21;;;;;;;5.07;1.80;;;;;;;;;;12698650;23;20188;-63
2020/12/24 21:29:22;;;;;;;7.47;2.20;;;;;;;;;;12694671;23;20543;-64
2020/12/24 21:34:31;;;;;;;9.33;1.53;;;;;;;;;;12694467;23;20786;-63
2020/12/24 21:39:34;;;;;;;5.43;1.67;;;;;;;;;;12690933;23;20181;-64
2020/12/24 21:44:36;;;;;;;7.43;2.47;;;;;;;;;;12697201;23;20257;-64
2020/12/24 21:49:37;;;;;;;7.33;2.47;;;;;;;;;;12695797;23;20216;-64
2020/12/24 21:54:43;;;;;;;5.10;2.20;;;;;;;;;;12696180;23;20173;-61
2020/12/24 21:59:45;;;;;;;7.47;2.90;;;;;;;;;;12696953;23;20576;-62
2020/12/24 22:04:50;;;;;;;6.90;1.80;;;;;;;;;;12693752;23;20281;-63
2020/12/24 22:09:53;;;;;;;2.73;1.60;;;;;;;;;;12692629;23;20212;-65
2020/12/24 22:14:54;;;;;;;2.43;1.37;;;;;;;;;;12695673;23;20565;-66
2020/12/24 22:19:56;;;;;;;3.10;1.30;;;;;;;;;;12692677;23;20208;-65
2020/12/24 22:24:58;;;;;;;3.90;1.90;;;;;;;;;;12695437;23;21024;-65
2020/12/24 22:30:00;;;;;;;2.37;1.37;;;;;;;;;;12693519;23;20209;-64
2020/12/24 22:35:12;;;;;;;2.50;1.17;;;;;;;;;;12694064;23;20216;-64
2020/12/24 22:40:15;;;;;;;2.73;1.30;;;;;;;;;;12691564;23;20538;-64
2020/12/24 22:45:17;;;;;;;2.13;1.30;;;;;;;;;;12700145;23;20509;-65
2020/12/24 22:50:18;;;;;;;3.07;1.37;;;;;;;;;;12700972;23;20216;-64
2020/12/24 22:55:21;;;;;;;3.67;1.60;;;;;;;;;;12702501;23;20177;-64
2020/12/24 23:00:26;;;;;;;4.27;1.60;;;;;;;;;;12703665;23;20173;-64
2020/12/24 23:05:32;;;;;;;8.27;1.70;;;;;;;;;;12698865;23;20169;-64
2020/12/24 23:10:34;;;;;;;9.70;2.10;;;;;;;;;;12699265;23;20852;-64
2020/12/24 23:15:36;;;;;;;3.70;1.17;;;;;;;;;;12700395;23;20176;-64
2020/12/24 23:20:38;;;;;;;4.77;1.73;;;;;;;;;;12698956;23;20189;-64
2020/12/24 23:25:40;;;;;;;9.43;2.00;;;;;;;;;;12700740;23;20344;-64
2020/12/24 23:30:42;;;;;;;7.87;2.23;;;;;;;;;;12700484;23;20216;-64
2020/12/24 23:35:53;;;;;;;4.07;1.70;;;;;;;;;;12700293;23;20209;-64
2020/12/24 23:40:56;;;;;;;8.20;2.00;;;;;;;;;;12699148;23;20563;-64
2020/12/24 23:45:57;;;;;;;7.20;1.90;;;;;;;;;;12699179;23;20181;-64
2020/12/24 23:50:59;;;;;;;7.17;1.90;;;;;;;;;;12698105;23;20227;-64
2020/12/24 23:56:02;;;;;;;7.80;1.83;;;;;;;;;;12700185;23;20173;-64
